createdAt,value
2022-10-09T00:01:24.236Z,21.70
2022-10-09T00:03:53.261Z,20.77
2022-10-09T00:06:31.723Z,17.33
2022-10-09T00:09:02.595Z,20.17
2022-10-09T00:11:31.749Z,18.60
2022-10-09T00:13:59.647Z,18.35
2022-10-09T00:16:30.140Z,19.08
2022-10-09T00:18:59.741Z,19.50
2022-10-09T00:21:36.905Z,18.85
2022-10-09T00:24:08.684Z,18.92
2022-10-09T00:26:38.296Z,17.83
2022-10-09T00:29:07.889Z,16.83
2022-10-09T00:31:35.334Z,17.23
2022-10-09T00:34:02.636Z,18.55
2022-10-09T00:36:29.915Z,18.63
2022-10-09T00:38:57.398Z,19.15
2022-10-09T00:41:30.640Z,18.23
2022-10-09T00:44:02.307Z,18.60
2022-10-09T00:49:32.191Z,17.98
2022-10-09T00:52:03.225Z,18.10
2022-10-09T00:54:34.097Z,18.35
2022-10-09T00:57:01.805Z,17.48
2022-10-09T00:59:30.079Z,19.90
2022-10-09T01:01:57.512Z,18.08
2022-10-09T01:04:24.879Z,19.83
2022-10-09T01:07:00.892Z,18.17
2022-10-09T01:09:40.019Z,17.45
2022-10-09T01:12:20.038Z,20.23
2022-10-09T01:15:20.767Z,18.27
2022-10-09T01:18:15.258Z,20.17
2022-10-09T01:20:54.759Z,18.92
2022-10-09T01:23:40.163Z,21.42
2022-10-09T01:26:16.376Z,21.42
2022-10-09T01:28:47.569Z,18.77
2022-10-09T01:31:17.774Z,19.48
2022-10-09T01:33:46.691Z,18.35
2022-10-09T01:36:16.369Z,16.55
2022-10-09T01:38:45.303Z,22.92
2022-10-09T01:41:12.713Z,19.73
2022-10-09T01:43:43.479Z,19.63
2022-10-09T01:46:27.265Z,21.15
2022-10-09T01:49:11.382Z,19.17
2022-10-09T01:51:51.893Z,20.30
2022-10-09T01:54:31.696Z,21.52
2022-10-09T01:57:04.009Z,19.90
2022-10-09T01:59:35.885Z,18.67
2022-10-09T02:02:07.685Z,19.38
2022-10-09T02:04:38.758Z,18.83
2022-10-09T02:07:06.379Z,19.92
2022-10-09T02:09:34.708Z,22.48
2022-10-09T02:12:07.990Z,20.85
2022-10-09T02:14:36.527Z,19.80
2022-10-09T02:17:12.158Z,19.45
2022-10-09T02:19:48.257Z,19.77
2022-10-09T02:22:47.112Z,18.70
2022-10-09T02:25:15.593Z,27.60
2022-10-09T02:27:42.976Z,18.67
2022-10-09T02:30:13.701Z,17.30
2022-10-09T02:32:41.104Z,17.40
2022-10-09T02:35:11.349Z,16.58
2022-10-09T02:37:38.597Z,21.23
2022-10-09T02:40:10.865Z,18.45
2022-10-09T02:42:40.605Z,20.85
2022-10-09T02:45:10.883Z,17.30
2022-10-09T02:47:40.279Z,21.50
2022-10-09T02:50:08.324Z,18.13
2022-10-09T02:52:35.654Z,18.73
2022-10-09T02:55:03.033Z,20.73
2022-10-09T02:57:32.776Z,19.33
2022-10-09T03:00:02.759Z,18.98
2022-10-09T03:02:32.390Z,17.80
2022-10-09T03:05:02.084Z,19.00
2022-10-09T03:07:31.530Z,19.05
2022-10-09T03:09:58.888Z,20.50
2022-10-09T03:12:26.269Z,17.25
2022-10-09T03:14:53.517Z,18.33
2022-10-09T03:17:23.104Z,17.77
2022-10-09T03:19:54.972Z,21.15
2022-10-09T03:22:27.162Z,18.05
2022-10-09T03:24:56.891Z,18.50
2022-10-09T03:27:24.153Z,17.33
2022-10-09T03:29:53.911Z,19.85
2022-10-09T03:32:23.623Z,19.60
2022-10-09T03:34:53.224Z,18.52
2022-10-09T03:37:20.470Z,17.50
2022-10-09T03:39:49.993Z,20.95
2022-10-09T03:42:17.313Z,18.58
2022-10-09T03:44:46.949Z,17.98
2022-10-09T03:47:16.666Z,17.92
2022-10-09T03:49:48.875Z,18.40
2022-10-09T03:52:16.135Z,19.80
2022-10-09T03:54:43.489Z,16.55
2022-10-09T03:57:10.821Z,14.68
2022-10-09T03:59:40.234Z,13.93
2022-10-09T04:02:08.350Z,12.82
2022-10-09T04:04:35.633Z,12.77
2022-10-09T04:07:02.924Z,11.77
2022-10-09T04:09:30.197Z,13.02
2022-10-09T04:11:59.979Z,12.35
2022-10-09T04:14:27.237Z,11.88
2022-10-09T04:16:54.685Z,11.15
2022-10-09T04:19:26.835Z,13.95
2022-10-09T04:21:58.653Z,14.52
2022-10-09T04:26:52.962Z,11.23
2022-10-09T04:29:21.440Z,12.00
2022-10-09T04:31:51.185Z,12.35
2022-10-09T04:34:18.638Z,12.43
2022-10-09T04:36:50.913Z,11.43
2022-10-09T04:39:20.546Z,12.10
2022-10-09T04:41:47.823Z,15.88
2022-10-09T04:44:15.165Z,16.70
2022-10-09T04:46:42.453Z,35.85
2022-10-09T04:49:14.078Z,31.45
2022-10-09T04:54:09.630Z,29.95
2022-10-09T04:56:37.148Z,65.97
2022-10-09T04:59:04.772Z,37.47
2022-10-09T05:01:38.030Z,34.08
2022-10-09T05:04:08.141Z,31.25
2022-10-09T05:06:37.673Z,21.30
2022-10-09T05:09:10.057Z,20.55
2022-10-09T05:11:42.313Z,14.43
2022-10-09T05:14:13.428Z,15.10
2022-10-09T05:17:00.899Z,11.23
2022-10-09T05:19:27.983Z,17.98
2022-10-09T05:21:55.583Z,9.88
2022-10-09T05:24:22.835Z,11.80
2022-10-09T05:26:50.185Z,9.73
2022-10-09T05:29:17.558Z,9.95
2022-10-09T05:31:49.608Z,9.10
2022-10-09T05:34:17.352Z,9.95
2022-10-09T05:36:44.629Z,8.27
2022-10-09T05:39:13.194Z,9.07
2022-10-09T05:41:40.562Z,8.77
2022-10-09T05:44:08.890Z,8.32
2022-10-09T05:46:36.264Z,8.57
2022-10-09T05:49:07.940Z,8.10
2022-10-09T05:54:04.730Z,8.90
2022-10-09T05:56:37.091Z,7.63
2022-10-09T05:59:10.205Z,7.95
2022-10-09T06:01:42.708Z,9.27
2022-10-09T06:04:21.101Z,7.13
2022-10-09T06:06:52.337Z,7.85
2022-10-09T06:09:23.262Z,7.65
2022-10-09T06:11:53.887Z,7.50
2022-10-09T06:14:22.275Z,6.95
2022-10-09T06:16:52.670Z,7.88
2022-10-09T06:19:22.990Z,7.20
2022-10-09T06:21:52.488Z,7.22
2022-10-09T06:24:29.753Z,7.72
2022-10-09T06:26:59.922Z,6.90
2022-10-09T06:29:27.420Z,6.85
2022-10-09T06:31:57.065Z,6.45
2022-10-09T06:34:24.963Z,6.72
2022-10-09T06:36:52.258Z,6.03
2022-10-09T06:39:19.629Z,7.10
2022-10-09T06:41:47.001Z,6.00
2022-10-09T06:44:17.165Z,5.57
2022-10-09T06:46:49.205Z,6.22
2022-10-09T06:49:16.499Z,6.07
2022-10-09T06:51:43.786Z,4.93
2022-10-09T06:54:17.492Z,6.00
2022-10-09T06:56:44.987Z,5.45
2022-10-09T06:59:12.454Z,5.78
2022-10-09T07:01:42.064Z,6.22
2022-10-09T07:04:12.050Z,8.18
2022-10-09T07:06:42.218Z,6.47
2022-10-09T07:09:12.459Z,7.05
2022-10-09T07:11:45.201Z,8.15
2022-10-09T07:14:14.244Z,7.13
2022-10-09T07:16:48.714Z,5.65
2022-10-09T07:19:17.843Z,4.28
2022-10-09T07:21:47.573Z,5.45
2022-10-09T07:24:15.315Z,6.05
2022-10-09T07:26:45.281Z,6.07
2022-10-09T07:29:15.049Z,6.30
2022-10-09T07:31:42.506Z,6.32
2022-10-09T07:34:10.144Z,11.05
2022-10-09T07:36:37.589Z,6.10
2022-10-09T07:39:05.623Z,6.53
2022-10-09T07:41:33.117Z,6.47
2022-10-09T07:44:00.469Z,5.78
2022-10-09T07:46:33.298Z,6.28
2022-10-09T07:49:01.773Z,6.78
2022-10-09T07:51:30.228Z,5.80
2022-10-09T07:53:58.244Z,4.05
2022-10-09T07:56:29.192Z,5.97
2022-10-09T07:58:58.956Z,5.97
2022-10-09T08:01:30.751Z,5.20
2022-10-09T08:04:02.607Z,8.40
2022-10-09T08:06:31.007Z,5.13
2022-10-09T08:09:02.155Z,3.95
2022-10-09T08:11:30.174Z,4.88
2022-10-09T08:13:57.843Z,4.40
2022-10-09T08:16:26.946Z,3.05
2022-10-09T08:18:58.925Z,4.05
2022-10-09T08:21:28.359Z,4.03
2022-10-09T08:23:57.546Z,4.03
2022-10-09T08:26:26.264Z,4.57
2022-10-09T08:28:59.249Z,4.82
2022-10-09T08:31:27.727Z,5.03
2022-10-09T08:34:00.153Z,4.20
2022-10-09T08:36:29.243Z,4.90
2022-10-09T08:38:56.585Z,4.43
2022-10-09T08:41:29.676Z,2.50
2022-10-09T08:44:19.974Z,4.25
2022-10-09T08:46:56.703Z,3.55
2022-10-09T08:49:35.389Z,2.47
2022-10-09T08:52:16.947Z,3.35
2022-10-09T08:54:46.728Z,3.42
2022-10-09T08:57:18.321Z,5.78
2022-10-09T09:02:51.113Z,5.07
2022-10-09T09:05:27.725Z,4.10
2022-10-09T09:08:19.964Z,3.63
2022-10-09T09:10:57.684Z,3.63
2022-10-09T09:13:24.993Z,3.58
2022-10-09T09:16:18.604Z,4.45
2022-10-09T09:18:52.653Z,5.65
2022-10-09T09:21:48.464Z,4.80
2022-10-09T09:24:19.505Z,4.57
2022-10-09T09:26:53.598Z,2.50
2022-10-09T09:29:24.633Z,5.47
2022-10-09T09:32:05.130Z,4.22
2022-10-09T09:34:39.072Z,5.68
2022-10-09T09:37:06.412Z,3.00
2022-10-09T09:42:30.344Z,2.90
2022-10-09T09:45:07.021Z,4.05
2022-10-09T09:47:40.471Z,3.30
2022-10-09T09:50:28.437Z,6.55
2022-10-09T09:53:03.206Z,4.78
2022-10-09T09:55:34.617Z,2.58
2022-10-09T10:00:34.074Z,3.13
2022-10-09T10:03:08.786Z,7.10
2022-10-09T10:05:37.879Z,2.97
2022-10-09T10:08:23.175Z,2.13
2022-10-09T10:10:53.590Z,3.15
2022-10-09T10:13:32.841Z,3.63
2022-10-09T10:16:03.175Z,2.90
2022-10-09T10:18:37.626Z,2.58
2022-10-09T10:21:08.828Z,3.42
2022-10-09T10:23:44.186Z,2.60
2022-10-09T10:26:34.659Z,3.40
2022-10-09T10:29:18.071Z,2.95
2022-10-09T10:31:52.470Z,3.22
2022-10-09T10:34:37.849Z,2.97
2022-10-09T10:37:25.369Z,2.97
2022-10-09T10:39:56.944Z,2.63
2022-10-09T10:43:01.281Z,2.30
2022-10-09T10:45:37.387Z,2.65
2022-10-09T10:48:09.339Z,2.03
2022-10-09T10:50:40.762Z,3.22
2022-10-09T10:56:02.647Z,1.60
2022-10-09T10:58:37.397Z,1.45
2022-10-09T11:01:42.412Z,4.15
2022-10-09T11:04:47.494Z,3.63
2022-10-09T11:07:37.274Z,2.03
2022-10-09T11:10:22.554Z,1.40
2022-10-09T11:13:14.167Z,2.72
2022-10-09T11:18:42.625Z,2.10
2022-10-09T11:21:46.771Z,2.33
2022-10-09T11:24:43.281Z,2.13
2022-10-09T11:27:25.458Z,6.70
2022-10-09T11:29:58.674Z,2.35
2022-10-09T11:32:29.109Z,1.38
2022-10-09T11:35:12.740Z,2.00
2022-10-09T11:37:43.521Z,3.60
2022-10-09T11:40:36.522Z,1.73
2022-10-09T11:43:16.250Z,1.83
2022-10-09T11:45:49.586Z,3.03
2022-10-09T11:48:25.827Z,3.00
2022-10-09T11:50:53.089Z,1.35
2022-10-09T11:53:26.782Z,2.53
2022-10-09T11:56:21.888Z,2.53
2022-10-09T11:59:02.341Z,1.83
2022-10-09T12:01:34.998Z,1.60
2022-10-09T12:04:08.691Z,3.70
2022-10-09T12:07:00.681Z,2.60
2022-10-09T12:09:39.993Z,2.58
2022-10-09T12:12:16.326Z,1.52
2022-10-09T12:14:48.469Z,2.17
2022-10-09T12:17:38.486Z,1.55
2022-10-09T12:20:19.107Z,1.10
2022-10-09T12:23:13.843Z,1.60
2022-10-09T12:25:44.267Z,1.30
2022-10-09T12:28:36.408Z,1.48
2022-10-09T12:31:08.908Z,1.35
2022-10-09T12:33:41.793Z,2.65
2022-10-09T12:36:38.694Z,2.53
2022-10-09T12:39:33.987Z,1.70
2022-10-09T12:42:02.169Z,2.30
2022-10-09T12:44:34.034Z,1.90
2022-10-09T12:47:13.914Z,1.10
2022-10-09T12:49:41.343Z,0.75
2022-10-09T12:52:16.395Z,1.55
2022-10-09T12:54:45.040Z,2.75
2022-10-09T12:57:17.787Z,2.65
2022-10-09T12:59:47.063Z,1.02
2022-10-09T13:02:21.127Z,2.22
2022-10-09T13:05:03.412Z,4.22
2022-10-09T13:07:32.645Z,3.92
2022-10-09T13:10:04.006Z,8.13
2022-10-09T13:15:06.899Z,1.35
2022-10-09T13:17:41.819Z,1.13
2022-10-09T13:20:12.355Z,1.23
2022-10-09T13:22:52.823Z,2.88
2022-10-09T13:25:20.390Z,1.97
2022-10-09T13:27:48.117Z,1.58
2022-10-09T13:30:15.719Z,2.80
2022-10-09T13:32:43.112Z,1.50
2022-10-09T13:35:10.554Z,1.27
2022-10-09T13:37:38.107Z,0.75
2022-10-09T13:40:14.779Z,2.10
2022-10-09T13:42:43.034Z,2.45
2022-10-09T13:45:11.024Z,3.00
2022-10-09T13:47:40.837Z,2.78
2022-10-09T13:50:08.539Z,2.55
2022-10-09T13:52:35.961Z,1.25
2022-10-09T13:55:03.420Z,1.35
2022-10-09T13:57:35.345Z,1.90
2022-10-09T14:00:06.194Z,2.47
2022-10-09T14:05:25.713Z,2.20
2022-10-09T14:07:53.308Z,1.90
2022-10-09T14:10:23.869Z,2.60
2022-10-09T14:12:52.108Z,1.07
2022-10-09T14:15:24.569Z,1.65
2022-10-09T14:17:52.154Z,1.17
2022-10-09T14:20:20.063Z,2.00
2022-10-09T14:22:53.001Z,2.40
2022-10-09T14:25:20.414Z,1.88
2022-10-09T14:27:47.780Z,1.50
2022-10-09T14:30:15.120Z,4.60
2022-10-09T14:32:53.173Z,1.77
2022-10-09T14:35:21.608Z,1.83
2022-10-09T14:37:49.347Z,1.33
2022-10-09T14:40:17.129Z,1.95
2022-10-09T14:42:44.579Z,2.45
2022-10-09T14:45:38.570Z,1.98
2022-10-09T14:48:08.875Z,1.48
2022-10-09T14:50:36.664Z,2.47
2022-10-09T14:53:04.251Z,1.75
2022-10-09T14:55:34.067Z,1.33
2022-10-09T14:58:01.741Z,2.22
2022-10-09T15:00:29.182Z,1.45
2022-10-09T15:02:59.028Z,1.10
2022-10-09T15:05:27.440Z,0.98
2022-10-09T15:07:54.861Z,1.38
2022-10-09T15:10:22.390Z,3.22
2022-10-09T15:12:52.371Z,1.50
2022-10-09T15:15:19.940Z,4.35
2022-10-09T15:17:47.815Z,1.35
2022-10-09T15:20:15.505Z,1.05
2022-10-09T15:22:43.037Z,1.83
2022-10-09T15:25:10.621Z,1.77
2022-10-09T15:27:38.543Z,1.75
2022-10-09T15:30:06.616Z,2.67
2022-10-09T15:32:34.205Z,1.40
2022-10-09T15:35:02.295Z,1.05
2022-10-09T15:37:29.737Z,2.40
2022-10-09T15:39:57.172Z,1.77
2022-10-09T15:42:24.653Z,2.08
2022-10-09T15:44:54.822Z,2.22
2022-10-09T15:47:39.225Z,1.77
2022-10-09T15:50:10.300Z,4.30
2022-10-09T15:52:38.026Z,1.25
2022-10-09T15:55:07.204Z,2.25
2022-10-09T15:57:34.742Z,2.00
2022-10-09T16:00:02.152Z,1.58
2022-10-09T16:02:29.747Z,1.85
2022-10-09T16:04:57.152Z,3.03
2022-10-09T16:07:27.228Z,3.15
2022-10-09T16:09:57.496Z,1.00
2022-10-09T16:12:25.128Z,1.42
2022-10-09T16:14:52.841Z,1.13
2022-10-09T16:17:20.268Z,1.75
2022-10-09T16:19:47.860Z,2.25
2022-10-09T16:22:15.301Z,1.95
2022-10-09T16:24:42.654Z,2.97
2022-10-09T16:27:10.227Z,2.53
2022-10-09T16:32:21.513Z,1.15
2022-10-09T16:35:00.753Z,2.95
2022-10-09T16:37:30.720Z,2.10
2022-10-09T16:40:01.497Z,1.80
2022-10-09T16:42:30.658Z,1.23
2022-10-09T16:44:58.791Z,1.58
2022-10-09T16:47:34.865Z,2.22
2022-10-09T16:50:03.913Z,1.90
2022-10-09T16:52:33.948Z,1.35
2022-10-09T16:55:01.359Z,1.48
2022-10-09T16:57:28.861Z,1.15
2022-10-09T16:59:56.304Z,1.63
2022-10-09T17:02:26.145Z,1.75
2022-10-09T17:04:53.696Z,2.25
2022-10-09T17:07:21.280Z,1.42
2022-10-09T17:09:48.876Z,0.80
2022-10-09T17:12:16.847Z,1.75
2022-10-09T17:14:54.654Z,2.42
2022-10-09T17:17:22.043Z,1.73
2022-10-09T17:19:52.434Z,2.55
2022-10-09T17:22:42.690Z,1.40
2022-10-09T17:25:11.710Z,2.20
2022-10-09T17:27:44.813Z,1.38
2022-10-09T17:30:15.762Z,4.07
2022-10-09T17:32:46.650Z,2.92
2022-10-09T17:35:16.213Z,1.50
2022-10-09T17:37:46.312Z,1.95
2022-10-09T17:40:13.870Z,1.80
2022-10-09T17:42:41.367Z,2.67
2022-10-09T17:45:12.984Z,1.55
2022-10-09T17:50:10.640Z,2.08
2022-10-09T17:52:40.164Z,1.70
2022-10-09T17:55:08.665Z,2.17
2022-10-09T17:57:37.352Z,1.67
2022-10-09T18:00:05.303Z,1.92
2022-10-09T18:02:32.840Z,5.85
2022-10-09T18:05:02.682Z,2.80
2022-10-09T18:07:31.077Z,2.22
2022-10-09T18:10:01.768Z,3.47
2022-10-09T18:12:29.584Z,1.92
2022-10-09T18:15:01.287Z,3.83
2022-10-09T18:17:34.322Z,3.00
2022-10-09T18:20:03.906Z,2.83
2022-10-09T18:22:36.485Z,2.58
2022-10-09T18:25:05.172Z,3.00
2022-10-09T18:27:33.078Z,3.25
2022-10-09T18:30:00.416Z,2.83
2022-10-09T18:32:28.050Z,2.53
2022-10-09T18:34:55.443Z,2.58
2022-10-09T18:37:23.884Z,4.00
2022-10-09T18:39:53.355Z,2.28
2022-10-09T18:42:20.663Z,2.97
2022-10-09T18:44:50.908Z,3.25
2022-10-09T18:47:22.555Z,6.35
2022-10-09T18:49:54.242Z,4.35
2022-10-09T18:52:24.988Z,2.97
2022-10-09T18:54:56.458Z,4.20
2022-10-09T18:57:26.532Z,3.38
2022-10-09T18:59:55.552Z,2.67
2022-10-09T19:02:26.537Z,3.47
2022-10-09T19:04:54.781Z,2.97
2022-10-09T19:07:22.577Z,2.97
2022-10-09T19:09:54.892Z,3.50
2022-10-09T19:12:27.105Z,1.85
2022-10-09T19:14:56.856Z,3.92
2022-10-09T19:17:24.403Z,3.63
2022-10-09T19:19:54.218Z,3.47
2022-10-09T19:22:24.025Z,6.35
2022-10-09T19:24:51.559Z,2.50
2022-10-09T19:27:18.939Z,3.97
2022-10-09T19:29:46.531Z,3.50
2022-10-09T19:32:18.215Z,3.97
2022-10-09T19:34:48.107Z,6.15
2022-10-09T19:37:15.705Z,6.10
2022-10-09T19:39:51.910Z,4.03
2022-10-09T19:42:20.145Z,3.45
2022-10-09T19:44:47.941Z,3.75
2022-10-09T19:47:16.346Z,2.88
2022-10-09T19:49:44.059Z,4.93
2022-10-09T19:52:11.493Z,2.80
2022-10-09T19:54:40.455Z,3.50
2022-10-09T19:57:08.236Z,3.40
2022-10-09T19:59:35.933Z,3.08
2022-10-09T20:02:06.651Z,3.33
2022-10-09T20:04:35.401Z,1.73
2022-10-09T20:07:12.954Z,3.97
2022-10-09T20:09:41.122Z,3.38
2022-10-09T20:12:09.962Z,2.55
2022-10-09T20:14:37.860Z,2.60
2022-10-09T20:17:06.978Z,3.40
2022-10-09T20:19:34.614Z,2.38
2022-10-09T20:22:02.400Z,3.42
2022-10-09T20:24:32.654Z,3.25
2022-10-09T20:27:02.717Z,2.97
2022-10-09T20:29:33.712Z,2.75
2022-10-09T20:32:01.574Z,3.78
2022-10-09T20:34:30.930Z,4.47
2022-10-09T20:36:58.611Z,3.08
2022-10-09T20:39:26.093Z,3.25
2022-10-09T20:41:53.576Z,3.55
2022-10-09T20:44:21.078Z,2.42
2022-10-09T20:46:49.528Z,4.70
2022-10-09T20:49:17.066Z,4.15
2022-10-09T20:51:47.359Z,3.20
2022-10-09T20:54:27.212Z,3.85
2022-10-09T20:56:57.732Z,3.22
2022-10-09T20:59:30.516Z,4.43
2022-10-09T21:01:57.993Z,2.17
2022-10-09T21:04:25.670Z,3.90
2022-10-09T21:06:53.293Z,2.20
2022-10-09T21:09:20.837Z,3.67
2022-10-09T21:11:48.432Z,3.83
2022-10-09T21:14:19.641Z,3.10
2022-10-09T21:16:49.442Z,2.60
2022-10-09T21:19:20.698Z,2.75
2022-10-09T21:21:51.246Z,7.53
2022-10-09T21:24:18.999Z,3.97
2022-10-09T21:26:47.579Z,3.53
2022-10-09T21:29:17.911Z,2.33
2022-10-09T21:31:45.491Z,2.30
2022-10-09T21:34:13.215Z,2.92
2022-10-09T21:37:15.957Z,2.90
2022-10-09T21:39:33.837Z,2.90
2022-10-09T21:42:04.047Z,3.42
2022-10-09T21:44:31.415Z,3.38
2022-10-09T21:46:58.789Z,2.90
2022-10-09T21:49:28.473Z,4.28
2022-10-09T21:51:56.370Z,3.75
2022-10-09T21:54:24.038Z,2.50
2022-10-09T21:56:53.923Z,3.00
2022-10-09T21:59:21.586Z,3.13
2022-10-09T22:01:49.094Z,2.20
2022-10-09T22:04:16.634Z,3.88
2022-10-09T22:06:44.057Z,3.00
2022-10-09T22:09:12.239Z,2.63
2022-10-09T22:11:39.748Z,2.67
2022-10-09T22:14:07.754Z,3.03
2022-10-09T22:16:35.353Z,3.58
2022-10-09T22:19:03.199Z,2.33
2022-10-09T22:21:30.678Z,4.25
2022-10-09T22:24:01.078Z,3.72
2022-10-09T22:26:28.727Z,2.58
2022-10-09T22:28:56.153Z,5.20
2022-10-09T22:31:26.338Z,2.17
2022-10-09T22:34:00.442Z,2.67
2022-10-09T22:36:35.129Z,4.72
2022-10-09T22:39:05.313Z,1.70
2022-10-09T22:41:34.390Z,4.18
2022-10-09T22:44:02.942Z,2.45
2022-10-09T22:46:39.665Z,4.38
2022-10-09T22:49:15.803Z,5.97
2022-10-09T22:51:43.770Z,2.10
2022-10-09T22:54:12.621Z,3.17
2022-10-09T22:56:45.026Z,2.72
2022-10-09T22:59:16.270Z,3.67
2022-10-09T23:01:55.754Z,2.35
2022-10-09T23:04:24.411Z,2.33
2022-10-09T23:06:57.260Z,2.55
2022-10-09T23:09:31.487Z,2.45
2022-10-09T23:12:02.442Z,3.17
2022-10-09T23:14:30.093Z,2.17
2022-10-09T23:16:57.651Z,2.15
2022-10-09T23:19:25.225Z,2.50
2022-10-09T23:21:52.713Z,2.42
2022-10-09T23:24:20.235Z,1.95
2022-10-09T23:26:51.086Z,6.80
2022-10-09T23:29:24.013Z,2.15
2022-10-09T23:31:55.765Z,2.20
2022-10-09T23:34:23.317Z,2.42
2022-10-09T23:36:51.960Z,3.05
2022-10-09T23:39:19.382Z,5.75
2022-10-09T23:41:46.804Z,2.45
2022-10-09T23:44:15.962Z,2.28
2022-10-09T23:46:45.171Z,2.90
2022-10-09T23:49:12.746Z,2.63
2022-10-09T23:51:40.187Z,4.20
2022-10-09T23:54:07.748Z,2.42
2022-10-09T23:56:36.527Z,5.57
2022-10-09T23:59:08.562Z,3.05
